createdAt,value
2023-01-04T00:02:04.108Z,98506.94
2023-01-04T00:04:32.335Z,98496.28
2023-01-04T00:07:00.483Z,98494.50
2023-01-04T00:09:28.612Z,98497.16
2023-01-04T00:11:56.725Z,98497.25
2023-01-04T00:14:24.793Z,98499.06
2023-01-04T00:16:52.921Z,98499.06
2023-01-04T00:19:22.432Z,98499.06
2023-01-04T00:21:50.575Z,98491.91
2023-01-04T00:24:18.790Z,98483.94
2023-01-04T00:26:46.999Z,98490.19
2023-01-04T00:29:15.121Z,98492.88
2023-01-04T00:31:44.707Z,98493.81
2023-01-04T00:34:14.886Z,98494.75
2023-01-04T00:36:44.682Z,98502.81
2023-01-04T00:39:15.270Z,98501.06
2023-01-04T00:42:00.956Z,98509.09
2023-01-04T00:44:29.650Z,98505.56
2023-01-04T00:46:57.779Z,98501.13
2023-01-04T00:49:25.977Z,98505.63
2023-01-04T00:51:55.419Z,98503.00
2023-01-04T00:54:23.551Z,98504.78
2023-01-04T00:56:52.439Z,98504.78
2023-01-04T00:59:21.334Z,98513.75
2023-01-04T01:01:49.620Z,98514.69
2023-01-04T01:04:18.855Z,98517.38
2023-01-04T01:06:47.139Z,98515.59
2023-01-04T01:09:16.758Z,98516.50
2023-01-04T01:11:45.110Z,98513.81
2023-01-04T01:14:15.442Z,98512.09
2023-01-04T01:16:59.086Z,98512.09
2023-01-04T01:19:27.939Z,98518.31
2023-01-04T01:21:57.264Z,98512.09
2023-01-04T01:24:27.204Z,98513.91
2023-01-04T01:26:55.962Z,98509.41
2023-01-04T01:29:24.095Z,98506.78
2023-01-04T01:31:52.354Z,98504.09
2023-01-04T01:34:20.659Z,98502.34
2023-01-04T01:36:48.859Z,98508.59
2023-01-04T01:39:16.987Z,98501.47
2023-01-04T01:41:46.440Z,98496.09
2023-01-04T01:44:51.801Z,98500.59
2023-01-04T01:47:20.656Z,98501.47
2023-01-04T01:49:49.485Z,98504.16
2023-01-04T01:52:23.002Z,98497.06
2023-01-04T01:54:53.111Z,98495.22
2023-01-04T01:57:24.080Z,98494.41
2023-01-04T01:59:52.913Z,98486.38
2023-01-04T02:02:21.311Z,98482.81
2023-01-04T02:04:50.569Z,98483.69
2023-01-04T02:07:21.437Z,98477.44
2023-01-04T02:09:49.586Z,98481.06
2023-01-04T02:12:17.660Z,98476.56
2023-01-04T02:14:47.918Z,98480.16
2023-01-04T02:17:17.735Z,98478.44
2023-01-04T02:20:04.943Z,98485.53
2023-01-04T02:23:09.506Z,98485.63
2023-01-04T02:26:13.590Z,98482.94
2023-01-04T02:28:59.582Z,98475.84
2023-01-04T02:31:31.595Z,98479.44
2023-01-04T02:34:02.577Z,98480.41
2023-01-04T02:36:35.028Z,98479.44
2023-01-04T02:39:11.975Z,98475.03
2023-01-04T02:41:42.785Z,98482.13
2023-01-04T02:44:32.089Z,98483.09
2023-01-04T02:47:03.082Z,98477.72
2023-01-04T02:49:48.596Z,98475.94
2023-01-04T02:52:16.766Z,98483.13
2023-01-04T02:54:44.949Z,98480.44
2023-01-04T02:57:25.831Z,98484.00
2023-01-04T03:00:24.914Z,98482.28
2023-01-04T03:03:30.105Z,98479.59
2023-01-04T03:06:18.532Z,98476.91
2023-01-04T03:08:55.778Z,98472.47
2023-01-04T03:11:41.068Z,98475.16
2023-01-04T03:14:32.270Z,98477.84
2023-01-04T03:17:00.138Z,98481.47
2023-01-04T03:19:43.579Z,98487.69
2023-01-04T03:22:31.988Z,98491.25
2023-01-04T03:25:19.661Z,98485.97
2023-01-04T03:28:05.643Z,98493.13
2023-01-04T03:30:51.459Z,98489.56
2023-01-04T03:33:36.698Z,98484.19
2023-01-04T03:36:10.276Z,98479.78
2023-01-04T03:38:58.334Z,98477.97
2023-01-04T03:41:45.099Z,98485.06
2023-01-04T03:44:37.860Z,98483.34
2023-01-04T03:47:24.861Z,98483.34
2023-01-04T03:49:57.576Z,98491.44
2023-01-04T03:52:27.590Z,98482.53
2023-01-04T03:54:55.802Z,98487.84
2023-01-04T03:57:23.961Z,98483.47
2023-01-04T03:59:54.648Z,98476.28
2023-01-04T04:02:24.643Z,98476.28
2023-01-04T04:05:10.113Z,98485.22
2023-01-04T04:07:57.193Z,98481.75
2023-01-04T04:10:25.328Z,98478.09
2023-01-04T04:12:53.401Z,98469.16
2023-01-04T04:15:21.508Z,98471.84
2023-01-04T04:17:49.574Z,98463.88
2023-01-04T04:20:17.811Z,98464.75
2023-01-04T04:22:47.283Z,98468.31
2023-01-04T04:25:15.448Z,98461.19
2023-01-04T04:27:43.539Z,98473.72
2023-01-04T04:30:11.980Z,98472.81
2023-01-04T04:32:40.115Z,98473.72
2023-01-04T04:35:08.920Z,98463.00
2023-01-04T04:37:37.380Z,98463.00
2023-01-04T04:40:08.172Z,98465.69
2023-01-04T04:42:35.322Z,98466.56
2023-01-04T04:45:03.397Z,98462.16
2023-01-04T04:47:31.572Z,98471.13
2023-01-04T04:49:59.621Z,98464.03
2023-01-04T04:52:27.834Z,98466.72
2023-01-04T04:54:56.034Z,98471.13
2023-01-04T04:57:25.587Z,98482.72
2023-01-04T04:59:53.767Z,98475.69
2023-01-04T05:02:22.143Z,98477.50
2023-01-04T05:04:50.459Z,98474.75
2023-01-04T05:07:18.562Z,98473.88
2023-01-04T05:09:46.571Z,98463.16
2023-01-04T05:12:32.087Z,98459.59
2023-01-04T05:15:01.600Z,98465.84
2023-01-04T05:17:29.748Z,98459.59
2023-01-04T05:19:57.855Z,98456.91
2023-01-04T05:22:25.991Z,98454.22
2023-01-04T05:24:54.151Z,98462.28
2023-01-04T05:27:22.272Z,98450.66
2023-01-04T05:30:07.477Z,98451.53
2023-01-04T05:32:37.111Z,98462.19
2023-01-04T05:35:05.616Z,98457.72
2023-01-04T05:37:33.670Z,98468.44
2023-01-04T05:40:01.856Z,98460.41
2023-01-04T05:42:29.955Z,98468.44
2023-01-04T05:44:59.114Z,98465.69
2023-01-04T05:47:27.208Z,98457.63
2023-01-04T05:49:56.856Z,98471.00
2023-01-04T05:52:25.029Z,98465.63
2023-01-04T05:54:53.175Z,98469.16
2023-01-04T05:57:21.347Z,98474.50
2023-01-04T05:59:49.444Z,98477.19
2023-01-04T06:02:18.475Z,98477.09
2023-01-04T06:04:46.954Z,98477.97
2023-01-04T06:07:18.122Z,98476.09
2023-01-04T06:09:46.976Z,98486.75
2023-01-04T06:12:15.223Z,98488.56
2023-01-04T06:14:43.362Z,98490.31
2023-01-04T06:17:11.546Z,98481.31
2023-01-04T06:19:39.818Z,98486.69
2023-01-04T06:22:08.038Z,98478.63
2023-01-04T06:24:37.569Z,98478.56
2023-01-04T06:27:05.623Z,98474.94
2023-01-04T06:29:33.752Z,98478.56
2023-01-04T06:32:02.013Z,98470.47
2023-01-04T06:34:31.469Z,98476.69
2023-01-04T06:36:59.801Z,98482.94
2023-01-04T06:39:27.965Z,98480.25
2023-01-04T06:42:05.425Z,98481.13
2023-01-04T06:44:34.718Z,98474.88
2023-01-04T06:47:02.871Z,98479.38
2023-01-04T06:49:31.043Z,98475.75
2023-01-04T06:51:59.123Z,98474.00
2023-01-04T06:54:27.273Z,98474.88
2023-01-04T06:56:55.308Z,98473.06
2023-01-04T06:59:24.853Z,98480.25
2023-01-04T07:01:53.026Z,98477.56
2023-01-04T07:04:21.428Z,98482.94
2023-01-04T07:06:49.890Z,98474.88
2023-01-04T07:09:18.130Z,98477.56
2023-01-04T07:11:46.247Z,98478.44
2023-01-04T07:14:14.352Z,98473.06
2023-01-04T07:16:43.883Z,98468.59
2023-01-04T07:19:12.015Z,98473.97
2023-01-04T07:21:40.142Z,98477.50
2023-01-04T07:24:09.159Z,98476.56
2023-01-04T07:26:37.731Z,98476.63
2023-01-04T07:29:18.052Z,98469.44
2023-01-04T07:31:48.682Z,98475.69
2023-01-04T07:34:17.125Z,98477.50
2023-01-04T07:36:45.298Z,98483.72
2023-01-04T07:39:13.532Z,98476.56
2023-01-04T07:41:41.822Z,98485.50
2023-01-04T07:44:11.078Z,98483.72
2023-01-04T07:46:39.337Z,98485.50
2023-01-04T07:49:16.714Z,98482.81
2023-01-04T07:51:46.139Z,98482.81
2023-01-04T07:54:14.551Z,98472.97
2023-01-04T07:56:42.860Z,98467.63
2023-01-04T07:59:11.305Z,98469.41
2023-01-04T08:01:39.588Z,98469.41
2023-01-04T08:04:10.079Z,98467.59
2023-01-04T08:06:38.588Z,98464.91
2023-01-04T08:09:06.896Z,98470.28
2023-01-04T08:11:35.297Z,98471.16
2023-01-04T08:14:03.507Z,98468.47
2023-01-04T08:16:32.898Z,98469.41
2023-01-04T08:19:02.103Z,98473.84
2023-01-04T08:21:32.211Z,98473.84
2023-01-04T08:24:00.642Z,98468.47
2023-01-04T08:26:28.769Z,98464.91
2023-01-04T08:28:57.653Z,98463.97
2023-01-04T08:31:27.155Z,98455.84
2023-01-04T08:33:55.966Z,98458.53
2023-01-04T08:36:27.605Z,98451.44
2023-01-04T08:39:01.396Z,98441.63
2023-01-04T08:41:56.626Z,98444.25
2023-01-04T08:44:19.113Z,98439.75
2023-01-04T08:46:47.347Z,98441.56
2023-01-04T08:49:15.660Z,98431.72
2023-01-04T08:51:43.814Z,98435.28
2023-01-04T08:54:14.095Z,98430.69
2023-01-04T08:56:42.383Z,98431.59
2023-01-04T08:59:11.299Z,98436.94
2023-01-04T09:01:39.953Z,98442.31
2023-01-04T09:04:08.517Z,98435.13
2023-01-04T09:06:37.394Z,98436.00
2023-01-04T09:09:05.655Z,98443.13
2023-01-04T09:11:35.419Z,98433.22
2023-01-04T09:14:08.214Z,98428.75
2023-01-04T09:16:37.531Z,98428.66
2023-01-04T09:19:05.918Z,98429.47
2023-01-04T09:21:34.200Z,98427.59
2023-01-04T09:24:02.438Z,98423.97
2023-01-04T09:26:30.806Z,98418.53
2023-01-04T09:29:00.495Z,98419.34
2023-01-04T09:31:29.411Z,98414.75
2023-01-04T09:34:15.462Z,98413.81
2023-01-04T09:36:44.513Z,98420.06
2023-01-04T09:39:21.036Z,98402.06
2023-01-04T09:41:54.269Z,98400.09
2023-01-04T09:45:21.870Z,98394.59
2023-01-04T09:47:37.113Z,98387.19
2023-01-04T09:50:07.780Z,98383.66
2023-01-04T09:52:42.256Z,98380.97
2023-01-04T09:55:38.359Z,98378.28
2023-01-04T09:58:01.466Z,98368.41
2023-01-04T10:00:32.876Z,98362.00
2023-01-04T10:03:05.243Z,98366.47
2023-01-04T10:05:34.158Z,98364.56
2023-01-04T10:08:02.900Z,98359.25
2023-01-04T10:10:43.644Z,98356.50
2023-01-04T10:13:15.098Z,98342.03
2023-01-04T10:15:46.384Z,98341.03
2023-01-04T10:21:35.195Z,98336.53
2023-01-04T10:24:11.137Z,98321.31
2023-01-04T10:26:41.129Z,98316.00
2023-01-04T10:29:27.102Z,98308.81
2023-01-04T10:31:58.326Z,98308.81
2023-01-04T10:34:27.474Z,98309.69
2023-01-04T10:36:58.998Z,98296.34
2023-01-04T10:39:32.832Z,98289.13
2023-01-04T10:42:02.080Z,98277.56
2023-01-04T10:44:34.823Z,98269.50
2023-01-04T10:47:08.509Z,98270.44
2023-01-04T10:49:41.771Z,98262.38
2023-01-04T10:52:12.666Z,98263.34
2023-01-04T10:54:42.367Z,98254.41
2023-01-04T10:57:12.440Z,98245.47
2023-01-04T10:59:43.550Z,98247.22
2023-01-04T11:02:17.397Z,98247.13
2023-01-04T11:04:48.098Z,98248.16
2023-01-04T11:07:18.012Z,98244.59
2023-01-04T11:09:47.397Z,98247.28
2023-01-04T11:12:16.585Z,98240.97
2023-01-04T11:14:44.676Z,98232.91
2023-01-04T11:17:14.155Z,98227.53
2023-01-04T11:19:42.371Z,98228.44
2023-01-04T11:22:13.911Z,98212.31
2023-01-04T11:25:00.463Z,98214.13
2023-01-04T11:27:31.276Z,98198.88
2023-01-04T11:30:01.428Z,98200.63
2023-01-04T11:32:35.588Z,98206.84
2023-01-04T11:35:03.746Z,98206.84
2023-01-04T11:37:34.746Z,98199.72
2023-01-04T11:40:24.053Z,98196.22
2023-01-04T11:42:53.195Z,98189.97
2023-01-04T11:45:23.988Z,98197.13
2023-01-04T11:47:54.665Z,98193.56
2023-01-04T11:50:40.031Z,98183.72
2023-01-04T11:53:25.124Z,98180.16
2023-01-04T11:55:53.173Z,98173.94
2023-01-04T11:58:21.316Z,98173.06
2023-01-04T12:00:52.280Z,98156.94
2023-01-04T12:03:25.294Z,98155.13
2023-01-04T12:05:53.443Z,98150.63
2023-01-04T12:08:29.940Z,98152.44
2023-01-04T12:10:58.136Z,98139.97
2023-01-04T12:13:26.280Z,98139.03
2023-01-04T12:16:03.232Z,98137.19
2023-01-04T12:18:36.592Z,98142.56
2023-01-04T12:21:04.896Z,98133.56
2023-01-04T12:23:34.008Z,98133.56
2023-01-04T12:26:02.083Z,98120.16
2023-01-04T12:28:31.808Z,98113.81
2023-01-04T12:31:30.504Z,98117.47
2023-01-04T12:34:01.639Z,98114.78
2023-01-04T12:36:57.394Z,98105.75
2023-01-04T12:39:47.635Z,98113.75
2023-01-04T12:42:22.269Z,98100.34
2023-01-04T12:45:24.260Z,98093.13
2023-01-04T12:48:11.403Z,98095.81
2023-01-04T12:51:32.712Z,98091.41
2023-01-04T12:54:03.919Z,98086.97
2023-01-04T12:57:09.284Z,98086.03
2023-01-04T12:59:37.869Z,98090.53
2023-01-04T13:02:15.927Z,98070.84
2023-01-04T13:04:44.517Z,98068.16
2023-01-04T13:07:16.635Z,98068.16
2023-01-04T13:09:50.931Z,98061.88
2023-01-04T13:12:54.198Z,98068.09
2023-01-04T13:15:24.979Z,98063.59
2023-01-04T13:17:53.336Z,98057.44
2023-01-04T13:20:22.732Z,98062.75
2023-01-04T13:22:53.275Z,98057.38
2023-01-04T13:25:23.544Z,98061.88
2023-01-04T13:27:59.414Z,98061.88
2023-01-04T13:30:35.484Z,98052.94
2023-01-04T13:33:27.853Z,98051.13
2023-01-04T13:36:04.814Z,98050.25
2023-01-04T13:38:33.875Z,98046.69
2023-01-04T13:41:03.665Z,98044.00
2023-01-04T13:43:43.872Z,98043.94
2023-01-04T13:46:15.518Z,98039.50
2023-01-04T13:48:44.657Z,98044.88
2023-01-04T13:51:17.745Z,98044.00
2023-01-04T13:53:53.800Z,98034.13
2023-01-04T13:56:24.849Z,98033.25
2023-01-04T13:58:53.115Z,98035.00
2023-01-04T14:01:22.730Z,98026.97
2023-01-04T14:03:51.968Z,98031.44
2023-01-04T14:06:25.303Z,98031.34
2023-01-04T14:09:05.114Z,98026.88
2023-01-04T14:11:52.734Z,98035.81
2023-01-04T14:14:36.097Z,98032.25
2023-01-04T14:17:16.520Z,98028.69
2023-01-04T14:19:49.962Z,98030.44
2023-01-04T14:22:30.308Z,98033.13
2023-01-04T14:25:14.496Z,98028.63
2023-01-04T14:27:44.127Z,98026.78
2023-01-04T14:30:25.015Z,98030.34
2023-01-04T14:32:56.898Z,98021.41
2023-01-04T14:35:25.350Z,98013.28
2023-01-04T14:37:53.427Z,98017.78
2023-01-04T14:40:25.130Z,98006.88
2023-01-04T14:42:54.774Z,98006.81
2023-01-04T14:45:23.037Z,98005.84
2023-01-04T14:47:51.302Z,98004.91
2023-01-04T14:50:19.651Z,98005.75
2023-01-04T14:52:51.846Z,98001.16
2023-01-04T14:55:20.202Z,98008.28
2023-01-04T14:57:48.551Z,98007.31
2023-01-04T15:00:19.723Z,98008.09
2023-01-04T15:02:51.119Z,98000.91
2023-01-04T15:05:20.802Z,97999.91
2023-01-04T15:07:49.448Z,97991.84
2023-01-04T15:10:21.166Z,97992.63
2023-01-04T15:12:49.416Z,97992.63
2023-01-04T15:15:19.486Z,97986.28
2023-01-04T15:17:47.807Z,97994.34
2023-01-04T15:20:16.332Z,97991.59
2023-01-04T15:22:44.591Z,97981.69
2023-01-04T15:25:12.917Z,97992.44
2023-01-04T15:27:42.840Z,97991.50
2023-01-04T15:30:12.243Z,97988.81
2023-01-04T15:32:42.108Z,97979.00
2023-01-04T15:35:10.821Z,97981.63
2023-01-04T15:37:39.010Z,97979.78
2023-01-04T15:40:08.141Z,97982.25
2023-01-04T15:42:53.849Z,97989.28
2023-01-04T15:45:23.904Z,97984.72
2023-01-04T15:47:53.540Z,97989.06
2023-01-04T15:50:21.813Z,97991.66
2023-01-04T15:52:49.912Z,97987.06
2023-01-04T15:55:18.472Z,97995.91
2023-01-04T15:57:46.639Z,97990.44
2023-01-04T16:00:15.808Z,97995.72
2023-01-04T16:02:44.100Z,97991.13
2023-01-04T16:05:13.816Z,97988.38
2023-01-04T16:07:42.092Z,97999.91
2023-01-04T16:10:10.400Z,97998.06
2023-01-04T16:12:45.946Z,97999.72
2023-01-04T16:15:16.603Z,97989.94
2023-01-04T16:17:45.212Z,97993.56
2023-01-04T16:20:15.629Z,97993.75
2023-01-04T16:22:43.928Z,97990.19
2023-01-04T16:25:12.764Z,97994.69
2023-01-04T16:27:41.347Z,97978.66
2023-01-04T16:30:12.005Z,97982.28
2023-01-04T16:32:42.330Z,97978.75
2023-01-04T16:35:11.102Z,97973.44
2023-01-04T16:37:43.072Z,97975.19
2023-01-04T16:40:12.372Z,97968.06
2023-01-04T16:42:40.517Z,97970.75
2023-01-04T16:45:09.774Z,97963.56
2023-01-04T16:47:42.129Z,97975.78
2023-01-04T16:50:10.918Z,97975.63
2023-01-04T16:52:40.760Z,97973.72
2023-01-04T16:55:11.045Z,97982.66
2023-01-04T16:57:39.476Z,97972.75
2023-01-04T17:00:09.055Z,97977.19
2023-01-04T17:02:37.528Z,97973.53
2023-01-04T17:05:06.545Z,97977.97
2023-01-04T17:07:34.845Z,97979.69
2023-01-04T17:10:05.929Z,97965.41
2023-01-04T17:12:49.755Z,97974.31
2023-01-04T17:18:07.296Z,97959.06
2023-01-04T17:20:35.462Z,97958.13
2023-01-04T17:23:03.662Z,97955.59
2023-01-04T17:25:33.463Z,97957.50
2023-01-04T17:28:01.818Z,97947.72
2023-01-04T17:30:30.048Z,97941.47
2023-01-04T17:32:58.314Z,97935.22
2023-01-04T17:35:26.526Z,97924.47
2023-01-04T17:37:54.995Z,97929.94
2023-01-04T17:40:23.804Z,97925.44
2023-01-04T17:42:53.906Z,97924.56
2023-01-04T17:45:22.255Z,97929.94
2023-01-04T17:47:51.148Z,97920.13
2023-01-04T17:50:19.651Z,97923.78
2023-01-04T17:52:48.281Z,97922.91
2023-01-04T17:55:16.450Z,97922.03
2023-01-04T17:57:44.874Z,97921.19
2023-01-04T18:00:15.887Z,97910.44
2023-01-04T18:02:44.207Z,97907.81
2023-01-04T18:05:12.710Z,97910.50
2023-01-04T18:07:40.924Z,97915.03
2023-01-04T18:10:20.610Z,97919.53
2023-01-04T18:12:49.514Z,97910.59
2023-01-04T18:15:19.264Z,97906.09
2023-01-04T18:17:47.420Z,97899.84
2023-01-04T18:20:24.730Z,97894.56
2023-01-04T18:22:53.408Z,97890.91
2023-01-04T18:25:21.522Z,97882.84
2023-01-04T18:27:49.851Z,97878.34
2023-01-04T18:30:19.683Z,97881.91
2023-01-04T18:32:47.999Z,97876.53
2023-01-04T18:35:16.376Z,97875.56
2023-01-04T18:37:45.206Z,97873.75
2023-01-04T18:40:13.947Z,97866.66
2023-01-04T18:42:42.161Z,97867.50
2023-01-04T18:45:10.975Z,97862.13
2023-01-04T18:47:40.990Z,97866.66
2023-01-04T18:50:10.153Z,97872.88
2023-01-04T18:52:38.358Z,97869.25
2023-01-04T18:55:07.183Z,97872.88
2023-01-04T18:57:36.329Z,97879.22
2023-01-04T19:00:05.633Z,97860.41
2023-01-04T19:02:33.965Z,97854.16
2023-01-04T19:05:03.656Z,97855.03
2023-01-04T19:07:31.850Z,97849.78
2023-01-04T19:10:00.045Z,97843.53
2023-01-04T19:12:28.097Z,97839.09
2023-01-04T19:14:56.270Z,97824.72
2023-01-04T19:17:26.068Z,97832.88
2023-01-04T19:19:54.655Z,97823.94
2023-01-04T19:22:24.602Z,97823.94
2023-01-04T19:24:52.851Z,97820.38
2023-01-04T19:27:21.142Z,97815.00
2023-01-04T19:29:49.371Z,97821.25
2023-01-04T19:32:21.179Z,97825.66
2023-01-04T19:34:49.513Z,97830.97
2023-01-04T19:37:17.800Z,97829.97
2023-01-04T19:39:47.419Z,97822.03
2023-01-04T19:42:15.651Z,97825.59
2023-01-04T19:44:43.796Z,97829.97
2023-01-04T19:47:12.039Z,97826.44
2023-01-04T19:49:40.149Z,97829.09
2023-01-04T19:52:08.437Z,97816.66
2023-01-04T19:54:37.688Z,97814.84
2023-01-04T19:57:07.652Z,97814.75
2023-01-04T19:59:35.961Z,97804.09
2023-01-04T20:02:04.265Z,97804.00
2023-01-04T20:04:33.856Z,97804.94
2023-01-04T20:07:02.083Z,97805.81
2023-01-04T20:09:32.145Z,97806.69
2023-01-04T20:12:00.488Z,97793.34
2023-01-04T20:14:30.837Z,97794.19
2023-01-04T20:16:59.148Z,97787.97
2023-01-04T20:19:27.471Z,97787.00
2023-01-04T20:21:55.735Z,97780.75
2023-01-04T20:24:23.923Z,97777.22
2023-01-04T20:26:52.250Z,97782.59
2023-01-04T20:29:20.412Z,97784.41
2023-01-04T20:31:50.095Z,97796.09
2023-01-04T20:34:18.282Z,97786.22
2023-01-04T20:36:46.584Z,97784.41
2023-01-04T20:39:14.783Z,97788.91
2023-01-04T20:42:03.600Z,97788.03
2023-01-04T20:44:30.855Z,97778.16
2023-01-04T20:47:00.570Z,97777.28
2023-01-04T20:49:28.889Z,97766.63
2023-01-04T20:51:57.107Z,97765.88
2023-01-04T20:54:25.462Z,97749.84
2023-01-04T20:56:54.976Z,97741.00
2023-01-04T20:59:23.334Z,97742.81
2023-01-04T21:01:51.643Z,97736.66
2023-01-04T21:04:21.351Z,97731.31
2023-01-04T21:06:49.512Z,97734.97
2023-01-04T21:09:17.757Z,97730.53
2023-01-04T21:11:46.076Z,97731.41
2023-01-04T21:14:14.392Z,97723.47
2023-01-04T21:16:42.619Z,97719.00
2023-01-04T21:19:10.972Z,97718.19
2023-01-04T21:21:40.584Z,97720.00
2023-01-04T21:24:09.325Z,97721.84
2023-01-04T21:26:37.587Z,97719.16
2023-01-04T21:29:05.889Z,97716.56
2023-01-04T21:31:34.221Z,97713.03
2023-01-04T21:34:05.471Z,97713.09
2023-01-04T21:36:36.135Z,97713.19
2023-01-04T21:39:05.793Z,97696.19
2023-01-04T21:41:34.057Z,97697.19
2023-01-04T21:44:02.673Z,97672.13
2023-01-04T21:46:30.983Z,97686.59
2023-01-04T21:49:01.705Z,97680.38
2023-01-04T21:51:30.158Z,97674.16
2023-01-04T21:53:58.903Z,97674.25
2023-01-04T21:56:28.760Z,97680.56
2023-01-04T21:58:56.828Z,97682.38
2023-01-04T22:01:30.920Z,97684.22
2023-01-04T22:04:02.723Z,97681.59
2023-01-04T22:06:33.218Z,97679.88
2023-01-04T22:09:01.518Z,97673.72
2023-01-04T22:11:31.120Z,97672.84
2023-01-04T22:13:59.309Z,97671.16
2023-01-04T22:16:27.584Z,97669.50
2023-01-04T22:18:55.920Z,97669.50
2023-01-04T22:21:24.756Z,97669.50
2023-01-04T22:23:53.027Z,97668.72
2023-01-04T22:26:21.231Z,97672.34
2023-01-04T22:28:50.921Z,97664.41
2023-01-04T22:31:19.510Z,97663.53
2023-01-04T22:33:47.694Z,97659.13
2023-01-04T22:36:22.233Z,97660.06
2023-01-04T22:38:51.479Z,97654.69
2023-01-04T22:41:21.541Z,97661.03
2023-01-04T22:43:55.527Z,97647.72
2023-01-04T22:46:24.266Z,97645.09
2023-01-04T22:48:52.552Z,97647.78
2023-01-04T22:51:21.121Z,97629.97
2023-01-04T22:53:49.396Z,97638.00
2023-01-04T22:56:20.089Z,97615.75
2023-01-04T22:58:54.123Z,97626.50
2023-01-04T23:01:22.900Z,97631.00
2023-01-04T23:03:53.097Z,97616.81
2023-01-04T23:06:21.778Z,97615.94
2023-01-04T23:08:50.059Z,97615.16
2023-01-04T23:11:18.956Z,97613.34
2023-01-04T23:13:47.142Z,97610.75
2023-01-04T23:16:17.031Z,97606.31
2023-01-04T23:18:45.383Z,97600.13
2023-01-04T23:21:13.577Z,97583.13
2023-01-04T23:23:41.794Z,97583.25
2023-01-04T23:26:11.975Z,97571.63
2023-01-04T23:28:40.217Z,97567.19
2023-01-04T23:31:10.028Z,97551.09
2023-01-04T23:33:39.585Z,97554.75
2023-01-04T23:36:09.188Z,97550.34
2023-01-04T23:38:37.422Z,97551.31
2023-01-04T23:41:05.920Z,97551.31
2023-01-04T23:43:35.703Z,97558.47
2023-01-04T23:46:07.230Z,97547.75
2023-01-04T23:48:35.516Z,97545.06
2023-01-04T23:51:05.243Z,97542.38
2023-01-04T23:53:33.476Z,97542.47
2023-01-04T23:56:02.848Z,97525.50
2023-01-04T23:58:31.563Z,97524.63
